Terminal Aerodrome Forecast
Issued by NWS

Home | Current Version | Previous Version | Text Only | Print | Product List | Glossary On
Versions: 1 2 3 4 5 6 7 8 9 10 11 12
504
FTUS45 KRIW 091125
TAFCOD
TAF
KCOD 091125Z 0912/1012 VRB06KT P6SM -SN SCT025 BKN040
     FM091800 16006KT P6SM BKN070
     FM101000 25012KT P6SM BKN060
      AMD LTD TO CLD VIS AND WIND=

USA.gov is the U.S. government's official web portal to all federal, state and local government web resources and services.